createdAt,value
2022-11-05T00:00:27.579Z,978.42
2022-11-05T00:01:27.619Z,978.43
2022-11-05T00:02:27.552Z,978.44
2022-11-05T00:03:27.604Z,978.43
2022-11-05T00:04:30.873Z,978.43
2022-11-05T00:05:27.522Z,978.43
2022-11-05T00:06:27.524Z,978.43
2022-11-05T00:07:27.508Z,978.44
2022-11-05T00:08:27.487Z,978.45
2022-11-05T00:09:27.480Z,978.47
2022-11-05T00:10:27.469Z,978.48
2022-11-05T00:11:27.471Z,978.50
2022-11-05T00:12:27.449Z,978.52
2022-11-05T00:13:27.442Z,978.53
2022-11-05T00:14:27.432Z,978.55
2022-11-05T00:15:27.428Z,978.56
2022-11-05T00:16:27.418Z,978.56
2022-11-05T00:17:27.398Z,978.57
2022-11-05T00:18:27.387Z,978.59
2022-11-05T00:19:27.378Z,978.60
2022-11-05T00:20:27.375Z,978.61
2022-11-05T00:21:27.368Z,978.62
2022-11-05T00:22:27.340Z,978.62
2022-11-05T00:23:27.343Z,978.63
2022-11-05T00:24:27.319Z,978.64
2022-11-05T00:25:27.324Z,978.63
2022-11-05T00:26:27.309Z,978.64
2022-11-05T00:27:27.311Z,978.64
2022-11-05T00:28:27.278Z,978.64
2022-11-05T00:29:27.269Z,978.66
2022-11-05T00:30:27.257Z,978.67
2022-11-05T00:31:27.251Z,978.69
2022-11-05T00:32:27.239Z,978.70
2022-11-05T00:33:27.254Z,978.72
2022-11-05T00:34:27.215Z,978.75
2022-11-05T00:35:27.209Z,978.77
2022-11-05T00:36:27.194Z,978.79
2022-11-05T00:37:27.186Z,978.79
2022-11-05T00:38:27.173Z,978.79
2022-11-05T00:39:27.173Z,978.80
2022-11-05T00:40:27.151Z,978.80
2022-11-05T00:41:27.149Z,978.81
2022-11-05T00:42:27.129Z,978.82
2022-11-05T00:43:27.124Z,978.82
2022-11-05T00:44:27.118Z,978.83
2022-11-05T00:45:27.113Z,978.83
2022-11-05T00:46:27.115Z,978.82
2022-11-05T00:47:27.092Z,978.82
2022-11-05T00:48:27.077Z,978.81
2022-11-05T00:49:27.091Z,978.80
2022-11-05T00:50:27.056Z,978.80
2022-11-05T00:51:27.040Z,978.80
2022-11-05T00:52:27.028Z,978.81
2022-11-05T00:53:27.015Z,978.82
2022-11-05T00:54:27.023Z,978.84
2022-11-05T00:55:26.995Z,978.85
2022-11-05T00:56:26.984Z,978.87
2022-11-05T00:57:26.973Z,978.88
2022-11-05T00:58:26.968Z,978.89
2022-11-05T00:59:26.954Z,978.91
2022-11-05T01:00:26.955Z,978.93
2022-11-05T01:01:27.087Z,978.96
2022-11-05T01:02:27.049Z,978.99
2022-11-05T01:03:26.912Z,979.01
2022-11-05T01:04:26.907Z,979.01
2022-11-05T01:05:26.896Z,979.01
2022-11-05T01:06:26.877Z,979.01
2022-11-05T01:07:26.875Z,979.00
2022-11-05T01:08:26.856Z,979.00
2022-11-05T01:09:26.863Z,978.99
2022-11-05T01:10:26.839Z,979.00
2022-11-05T01:11:26.847Z,979.01
2022-11-05T01:12:26.816Z,979.02
2022-11-05T01:13:26.805Z,979.05
2022-11-05T01:14:26.793Z,979.08
2022-11-05T01:15:26.787Z,979.11
2022-11-05T01:16:26.770Z,979.12
2022-11-05T01:17:26.775Z,979.13
2022-11-05T01:18:26.751Z,979.14
2022-11-05T01:19:26.744Z,979.14
2022-11-05T01:20:26.733Z,979.13
2022-11-05T01:21:26.745Z,979.13
2022-11-05T01:22:26.708Z,979.14
2022-11-05T01:23:26.701Z,979.15
2022-11-05T01:24:26.689Z,979.15
2022-11-05T01:25:26.678Z,979.16
2022-11-05T01:26:26.668Z,979.17
2022-11-05T01:27:26.677Z,979.19
2022-11-05T01:28:26.675Z,979.21
2022-11-05T01:29:26.637Z,979.22
2022-11-05T01:30:26.627Z,979.23
2022-11-05T01:31:26.618Z,979.24
2022-11-05T01:32:26.628Z,979.25
2022-11-05T01:33:26.594Z,979.26
2022-11-05T01:34:26.583Z,979.27
2022-11-05T01:35:26.573Z,979.27
2022-11-05T01:36:26.572Z,979.28
2022-11-05T01:37:26.566Z,979.28
2022-11-05T01:38:26.543Z,979.29
2022-11-05T01:39:26.537Z,979.31
2022-11-05T01:40:26.519Z,979.32
2022-11-05T01:41:26.513Z,979.33
2022-11-05T01:42:26.500Z,979.34
2022-11-05T01:43:26.512Z,979.35
2022-11-05T01:44:26.477Z,979.36
2022-11-05T01:45:26.492Z,979.37
2022-11-05T01:46:26.458Z,979.37
2022-11-05T01:47:26.447Z,979.38
2022-11-05T01:48:26.434Z,979.39
2022-11-05T01:49:26.443Z,979.40
2022-11-05T01:50:26.421Z,979.41
2022-11-05T01:51:26.410Z,979.41
2022-11-05T01:52:26.394Z,979.42
2022-11-05T01:53:26.395Z,979.42
2022-11-05T01:54:26.374Z,979.42
2022-11-05T01:55:26.368Z,979.41
2022-11-05T01:56:26.352Z,979.42
2022-11-05T01:57:26.344Z,979.43
2022-11-05T01:58:26.327Z,979.43
2022-11-05T01:59:26.328Z,979.43
2022-11-05T02:00:26.318Z,979.44
2022-11-05T02:01:26.451Z,979.44
2022-11-05T02:02:26.396Z,979.45
2022-11-05T02:03:26.279Z,979.46
2022-11-05T02:04:26.266Z,979.46
2022-11-05T02:05:26.270Z,979.47
2022-11-05T02:06:26.247Z,979.48
2022-11-05T02:07:26.244Z,979.48
2022-11-05T02:08:26.225Z,979.49
2022-11-05T02:09:26.217Z,979.49
2022-11-05T02:10:26.214Z,979.49
2022-11-05T02:11:26.207Z,979.49
2022-11-05T02:12:26.195Z,979.50
2022-11-05T02:13:26.175Z,979.51
2022-11-05T02:14:26.170Z,979.53
2022-11-05T02:15:26.152Z,979.54
2022-11-05T02:16:26.140Z,979.55
2022-11-05T02:17:26.150Z,979.56
2022-11-05T02:18:26.139Z,979.56
2022-11-05T02:19:26.110Z,979.57
2022-11-05T02:20:26.098Z,979.58
2022-11-05T02:21:26.093Z,979.60
2022-11-05T02:22:26.078Z,979.60
2022-11-05T02:23:26.081Z,979.60
2022-11-05T02:24:26.056Z,979.60
2022-11-05T02:25:26.052Z,979.60
2022-11-05T02:26:26.034Z,979.61
2022-11-05T02:27:26.051Z,979.62
2022-11-05T02:28:26.013Z,979.63
2022-11-05T02:29:26.005Z,979.63
2022-11-05T02:30:25.989Z,979.64
2022-11-05T02:31:25.986Z,979.62
2022-11-05T02:32:25.973Z,979.62
2022-11-05T02:33:25.979Z,979.62
2022-11-05T02:34:25.952Z,979.63
2022-11-05T02:35:25.953Z,979.64
2022-11-05T02:36:25.931Z,979.66
2022-11-05T02:37:25.921Z,979.67
2022-11-05T02:38:25.920Z,979.70
2022-11-05T02:39:25.900Z,979.71
2022-11-05T02:40:25.899Z,979.73
2022-11-05T02:41:25.883Z,979.75
2022-11-05T02:42:25.862Z,979.76
2022-11-05T02:43:25.855Z,979.78
2022-11-05T02:44:25.929Z,979.78
2022-11-05T02:45:25.838Z,979.80
2022-11-05T02:46:25.824Z,979.82
2022-11-05T02:47:25.819Z,979.83
2022-11-05T02:48:25.803Z,979.84
2022-11-05T02:49:25.807Z,979.85
2022-11-05T02:50:25.781Z,979.86
2022-11-05T02:51:25.774Z,979.87
2022-11-05T02:52:25.759Z,979.88
2022-11-05T02:53:25.755Z,979.89
2022-11-05T02:54:25.752Z,979.89
2022-11-05T02:55:25.734Z,979.90
2022-11-05T02:56:25.729Z,979.91
2022-11-05T02:57:25.728Z,979.91
2022-11-05T02:58:25.695Z,979.92
2022-11-05T02:59:25.698Z,979.94
2022-11-05T03:00:25.694Z,979.94
2022-11-05T03:01:25.770Z,979.94
2022-11-05T03:02:25.895Z,979.94
2022-11-05T03:03:25.647Z,979.94
2022-11-05T03:04:25.641Z,979.92
2022-11-05T03:05:25.627Z,979.90
2022-11-05T03:06:25.630Z,979.87
2022-11-05T03:07:25.609Z,979.85
2022-11-05T03:08:25.596Z,979.83
2022-11-05T03:09:25.585Z,979.81
2022-11-05T03:10:25.568Z,979.80
2022-11-05T03:11:25.574Z,979.79
2022-11-05T03:12:25.565Z,979.79
2022-11-05T03:13:25.542Z,979.79
2022-11-05T03:14:25.532Z,979.81
2022-11-05T03:15:25.522Z,979.82
2022-11-05T03:16:25.521Z,979.82
2022-11-05T03:17:25.499Z,979.82
2022-11-05T03:18:25.496Z,979.83
2022-11-05T03:19:25.481Z,979.83
2022-11-05T03:20:25.469Z,979.84
2022-11-05T03:21:25.458Z,979.85
2022-11-05T03:22:25.441Z,979.86
2022-11-05T03:23:25.445Z,979.87
2022-11-05T03:24:25.422Z,979.88
2022-11-05T03:25:25.416Z,979.88
2022-11-05T03:26:25.402Z,979.88
2022-11-05T03:27:25.396Z,979.89
2022-11-05T03:28:25.409Z,979.90
2022-11-05T03:29:25.412Z,979.89
2022-11-05T03:30:25.364Z,979.90
2022-11-05T03:31:25.351Z,979.90
2022-11-05T03:32:25.337Z,979.90
2022-11-05T03:33:25.334Z,979.90
2022-11-05T03:34:25.331Z,979.90
2022-11-05T03:35:25.310Z,979.90
2022-11-05T03:36:25.294Z,979.91
2022-11-05T03:37:25.299Z,979.93
2022-11-05T03:38:25.275Z,979.94
2022-11-05T03:39:25.266Z,979.96
2022-11-05T03:40:25.264Z,979.96
2022-11-05T03:41:25.245Z,979.96
2022-11-05T03:42:25.235Z,979.97
2022-11-05T03:43:25.222Z,979.97
2022-11-05T03:44:25.215Z,979.97
2022-11-05T03:45:25.208Z,979.97
2022-11-05T03:46:25.194Z,979.97
2022-11-05T03:47:25.189Z,979.96
2022-11-05T03:48:25.247Z,979.96
2022-11-05T03:49:25.165Z,979.96
2022-11-05T03:50:25.172Z,979.97
2022-11-05T03:51:25.135Z,979.98
2022-11-05T03:52:25.132Z,979.99
2022-11-05T03:53:25.120Z,980.01
2022-11-05T03:54:25.119Z,980.03
2022-11-05T03:55:25.116Z,980.04
2022-11-05T03:56:25.092Z,980.06
2022-11-05T03:57:25.079Z,980.08
2022-11-05T03:58:25.074Z,980.09
2022-11-05T03:59:25.061Z,980.11
2022-11-05T04:00:25.069Z,980.13
2022-11-05T04:01:25.089Z,980.15
2022-11-05T04:02:25.160Z,980.17
2022-11-05T04:03:25.019Z,980.17
2022-11-05T04:04:25.004Z,980.18
2022-11-05T04:05:24.988Z,980.19
2022-11-05T04:06:24.987Z,980.19
2022-11-05T04:07:24.981Z,980.17
2022-11-05T04:08:24.965Z,980.17
2022-11-05T04:09:24.949Z,980.16
2022-11-05T04:10:24.939Z,980.15
2022-11-05T04:11:24.929Z,980.16
2022-11-05T04:12:24.930Z,980.17
2022-11-05T04:13:24.904Z,980.17
2022-11-05T04:14:24.896Z,980.17
2022-11-05T04:15:24.886Z,980.17
2022-11-05T04:16:24.878Z,980.17
2022-11-05T04:17:24.877Z,980.16
2022-11-05T04:18:24.863Z,980.17
2022-11-05T04:19:26.268Z,980.17
2022-11-05T04:20:24.844Z,980.17
2022-11-05T04:21:24.821Z,980.18
2022-11-05T04:22:24.815Z,980.19
2022-11-05T04:23:24.814Z,980.21
2022-11-05T04:24:24.791Z,980.22
2022-11-05T04:25:24.781Z,980.23
2022-11-05T04:26:24.776Z,980.24
2022-11-05T04:27:24.757Z,980.26
2022-11-05T04:28:24.763Z,980.27
2022-11-05T04:29:24.735Z,980.28
2022-11-05T04:30:24.728Z,980.31
2022-11-05T04:31:24.722Z,980.33
2022-11-05T04:32:24.710Z,980.34
2022-11-05T04:33:24.692Z,980.36
2022-11-05T04:34:24.698Z,980.36
2022-11-05T04:35:24.680Z,980.36
2022-11-05T04:36:24.665Z,980.37
2022-11-05T04:37:24.652Z,980.36
2022-11-05T04:38:24.658Z,980.36
2022-11-05T04:39:24.630Z,980.35
2022-11-05T04:40:24.632Z,980.34
2022-11-05T04:41:24.609Z,980.33
2022-11-05T04:42:24.603Z,980.32
2022-11-05T04:43:24.593Z,980.32
2022-11-05T04:44:24.590Z,980.32
2022-11-05T04:45:24.567Z,980.33
2022-11-05T04:46:24.560Z,980.34
2022-11-05T04:47:24.546Z,980.35
2022-11-05T04:48:24.540Z,980.36
2022-11-05T04:49:24.546Z,980.38
2022-11-05T04:50:24.525Z,980.40
2022-11-05T04:51:24.504Z,980.42
2022-11-05T04:52:24.497Z,980.45
2022-11-05T04:53:24.490Z,980.47
2022-11-05T04:54:24.473Z,980.48
2022-11-05T04:55:24.471Z,980.49
2022-11-05T04:56:24.457Z,980.50
2022-11-05T04:57:24.447Z,980.52
2022-11-05T04:58:24.432Z,980.53
2022-11-05T04:59:24.422Z,980.55
2022-11-05T05:00:24.429Z,980.57
2022-11-05T05:01:24.495Z,980.60
2022-11-05T05:02:24.395Z,980.62
2022-11-05T05:03:24.383Z,980.62
2022-11-05T05:04:24.368Z,980.64
2022-11-05T05:05:24.367Z,980.65
2022-11-05T05:06:24.357Z,980.66
2022-11-05T05:07:24.338Z,980.67
2022-11-05T05:08:24.333Z,980.69
2022-11-05T05:09:24.316Z,980.70
2022-11-05T05:10:24.307Z,980.72
2022-11-05T05:11:24.293Z,980.73
2022-11-05T05:12:24.295Z,980.75
2022-11-05T05:13:24.272Z,980.77
2022-11-05T05:14:24.262Z,980.79
2022-11-05T05:15:24.258Z,980.81
2022-11-05T05:16:24.244Z,980.82
2022-11-05T05:17:24.239Z,980.83
2022-11-05T05:18:24.242Z,980.85
2022-11-05T05:19:24.210Z,980.86
2022-11-05T05:20:24.212Z,980.87
2022-11-05T05:21:24.188Z,980.88
2022-11-05T05:22:24.200Z,980.90
2022-11-05T05:23:24.167Z,980.91
2022-11-05T05:24:24.174Z,980.92
2022-11-05T05:25:24.148Z,980.94
2022-11-05T05:26:24.219Z,980.95
2022-11-05T05:27:24.128Z,980.96
2022-11-05T05:28:24.114Z,980.98
2022-11-05T05:29:24.109Z,980.99
2022-11-05T05:30:24.112Z,981.01
2022-11-05T05:31:24.084Z,981.02
2022-11-05T05:32:24.082Z,981.05
2022-11-05T05:33:24.080Z,981.08
2022-11-05T05:34:24.056Z,981.10
2022-11-05T05:35:24.043Z,981.11
2022-11-05T05:36:24.037Z,981.12
2022-11-05T05:37:24.022Z,981.12
2022-11-05T05:38:24.010Z,981.14
2022-11-05T05:39:24.005Z,981.15
2022-11-05T05:40:23.988Z,981.18
2022-11-05T05:41:23.985Z,981.21
2022-11-05T05:42:23.971Z,981.23
2022-11-05T05:43:23.953Z,981.25
2022-11-05T05:44:23.958Z,981.26
2022-11-05T05:45:23.937Z,981.28
2022-11-05T05:46:23.928Z,981.30
2022-11-05T05:47:23.919Z,981.31
2022-11-05T05:48:23.906Z,981.33
2022-11-05T05:49:23.849Z,981.35
2022-11-05T05:50:23.883Z,981.36
2022-11-05T05:51:23.873Z,981.38
2022-11-05T05:52:23.865Z,981.40
2022-11-05T05:53:23.806Z,981.41
2022-11-05T05:54:27.696Z,981.43
2022-11-05T05:55:23.790Z,981.45
2022-11-05T05:56:23.825Z,981.47
2022-11-05T05:57:23.809Z,981.49
2022-11-05T05:58:23.756Z,981.50
2022-11-05T05:59:23.734Z,981.51
2022-11-05T06:00:23.766Z,981.52
2022-11-05T06:01:23.774Z,981.53
2022-11-05T06:02:23.877Z,981.53
2022-11-05T06:03:23.748Z,981.52
2022-11-05T06:04:23.699Z,981.52
2022-11-05T06:05:23.671Z,981.51
2022-11-05T06:06:23.703Z,981.51
2022-11-05T06:07:23.668Z,981.51
2022-11-05T06:08:23.643Z,981.51
2022-11-05T06:09:23.631Z,981.50
2022-11-05T06:10:23.641Z,981.51
2022-11-05T06:11:23.617Z,981.52
2022-11-05T06:12:23.599Z,981.53
2022-11-05T06:13:23.588Z,981.54
2022-11-05T06:14:23.579Z,981.55
2022-11-05T06:15:23.576Z,981.57
2022-11-05T06:16:23.561Z,981.59
2022-11-05T06:17:23.563Z,981.61
2022-11-05T06:18:23.539Z,981.63
2022-11-05T06:19:23.526Z,981.64
2022-11-05T06:20:23.533Z,981.65
2022-11-05T06:21:23.502Z,981.66
2022-11-05T06:22:23.492Z,981.68
2022-11-05T06:23:23.498Z,981.70
2022-11-05T06:24:23.474Z,981.73
2022-11-05T06:25:23.460Z,981.75
2022-11-05T06:26:23.452Z,981.77
2022-11-05T06:27:23.452Z,981.80
2022-11-05T06:28:23.428Z,981.82
2022-11-05T06:29:23.433Z,981.84
2022-11-05T06:30:23.412Z,981.86
2022-11-05T06:31:23.395Z,981.87
2022-11-05T06:32:23.389Z,981.87
2022-11-05T06:33:23.375Z,981.88
2022-11-05T06:34:23.381Z,981.87
2022-11-05T06:35:23.354Z,981.87
2022-11-05T06:36:23.348Z,981.87
2022-11-05T06:37:23.330Z,981.88
2022-11-05T06:38:23.328Z,981.88
2022-11-05T06:39:23.323Z,981.90
2022-11-05T06:40:23.304Z,981.91
2022-11-05T06:41:23.288Z,981.91
2022-11-05T06:42:23.282Z,981.92
2022-11-05T06:43:23.282Z,981.92
2022-11-05T06:44:23.260Z,981.92
2022-11-05T06:45:23.249Z,981.92
2022-11-05T06:46:23.243Z,981.92
2022-11-05T06:47:23.227Z,981.91
2022-11-05T06:48:23.224Z,981.91
2022-11-05T06:49:23.226Z,981.91
2022-11-05T06:50:23.198Z,981.92
2022-11-05T06:51:23.189Z,981.94
2022-11-05T06:52:23.175Z,981.96
2022-11-05T06:53:23.170Z,981.99
2022-11-05T06:54:23.174Z,982.02
2022-11-05T06:55:23.171Z,982.04
2022-11-05T06:56:23.134Z,982.06
2022-11-05T06:57:23.128Z,982.08
2022-11-05T06:58:23.115Z,982.10
2022-11-05T06:59:23.100Z,982.11
2022-11-05T07:00:23.118Z,982.12
2022-11-05T07:01:23.173Z,982.13
2022-11-05T07:02:23.106Z,982.14
2022-11-05T07:03:23.057Z,982.15
2022-11-05T07:04:23.048Z,982.17
2022-11-05T07:05:23.052Z,982.19
2022-11-05T07:06:23.028Z,982.20
2022-11-05T07:07:23.014Z,982.21
2022-11-05T07:08:23.008Z,982.22
2022-11-05T07:09:22.996Z,982.23
2022-11-05T07:10:23.001Z,982.23
2022-11-05T07:11:22.990Z,982.24
2022-11-05T07:12:22.969Z,982.24
2022-11-05T07:13:22.950Z,982.24
2022-11-05T07:14:22.942Z,982.24
2022-11-05T07:15:22.942Z,982.25
2022-11-05T07:16:22.946Z,982.25
2022-11-05T07:17:22.911Z,982.27
2022-11-05T07:18:22.902Z,982.28
2022-11-05T07:19:22.923Z,982.30
2022-11-05T07:20:22.880Z,982.33
2022-11-05T07:21:22.894Z,982.35
2022-11-05T07:22:22.868Z,982.37
2022-11-05T07:23:22.854Z,982.40
2022-11-05T07:24:22.840Z,982.42
2022-11-05T07:25:22.823Z,982.44
2022-11-05T07:26:22.857Z,982.46
2022-11-05T07:27:22.807Z,982.48
2022-11-05T07:28:22.810Z,982.49
2022-11-05T07:29:22.785Z,982.51
2022-11-05T07:30:22.775Z,982.52
2022-11-05T07:31:22.777Z,982.54
2022-11-05T07:32:22.755Z,982.55
2022-11-05T07:33:22.745Z,982.56
2022-11-05T07:34:22.752Z,982.58
2022-11-05T07:35:22.721Z,982.59
2022-11-05T07:36:22.713Z,982.60
2022-11-05T07:37:22.697Z,982.61
2022-11-05T07:38:22.689Z,982.63
2022-11-05T07:39:22.700Z,982.65
2022-11-05T07:40:22.679Z,982.67
2022-11-05T07:41:22.655Z,982.69
2022-11-05T07:42:22.648Z,982.70
2022-11-05T07:43:22.635Z,982.72
2022-11-05T07:44:22.628Z,982.73
2022-11-05T07:45:22.625Z,982.74
2022-11-05T07:46:22.610Z,982.74
2022-11-05T07:47:22.590Z,982.75
2022-11-05T07:48:22.585Z,982.76
2022-11-05T07:49:22.589Z,982.77
2022-11-05T07:50:22.572Z,982.78
2022-11-05T07:51:22.549Z,982.78
2022-11-05T07:52:22.549Z,982.79
2022-11-05T07:53:22.528Z,982.80
2022-11-05T07:54:22.523Z,982.82
2022-11-05T07:55:22.519Z,982.84
2022-11-05T07:56:22.501Z,982.85
2022-11-05T07:57:22.492Z,982.85
2022-11-05T07:58:22.477Z,982.86
2022-11-05T07:59:22.470Z,982.86
2022-11-05T08:00:22.464Z,982.87
2022-11-05T08:01:22.596Z,982.88
2022-11-05T08:02:22.607Z,982.89
2022-11-05T08:03:22.624Z,982.89
2022-11-05T08:04:22.414Z,982.90
2022-11-05T08:05:22.419Z,982.91
2022-11-05T08:06:22.391Z,982.92
2022-11-05T08:07:22.393Z,982.92
2022-11-05T08:08:22.372Z,982.92
2022-11-05T08:09:22.365Z,982.91
2022-11-05T08:10:22.351Z,982.91
2022-11-05T08:11:22.342Z,982.90
2022-11-05T08:12:22.341Z,982.90
2022-11-05T08:13:22.323Z,982.89
2022-11-05T08:14:22.312Z,982.90
2022-11-05T08:15:22.298Z,982.90
2022-11-05T08:16:22.284Z,982.91
2022-11-05T08:17:22.288Z,982.91
2022-11-05T08:18:22.263Z,982.91
2022-11-05T08:19:22.305Z,982.92
2022-11-05T08:20:22.244Z,982.93
2022-11-05T08:21:22.236Z,982.95
2022-11-05T08:22:22.238Z,982.97
2022-11-05T08:23:22.228Z,982.99
2022-11-05T08:24:22.248Z,983.00
2022-11-05T08:25:22.196Z,983.02
2022-11-05T08:26:22.184Z,983.04
2022-11-05T08:27:22.173Z,983.06
2022-11-05T08:28:22.160Z,983.07
2022-11-05T08:29:22.160Z,983.08
2022-11-05T08:30:22.137Z,983.09
2022-11-05T08:31:22.135Z,983.10
2022-11-05T08:32:22.130Z,983.12
2022-11-05T08:33:22.125Z,983.12
2022-11-05T08:34:22.101Z,983.14
2022-11-05T08:35:22.098Z,983.16
2022-11-05T08:36:22.075Z,983.18
2022-11-05T08:37:22.067Z,983.20
2022-11-05T08:38:22.110Z,983.22
2022-11-05T08:39:22.060Z,983.22
2022-11-05T08:40:22.032Z,983.23
2022-11-05T08:41:22.024Z,983.24
2022-11-05T08:42:22.010Z,983.24
2022-11-05T08:43:22.005Z,983.25
2022-11-05T08:44:21.997Z,983.27
2022-11-05T08:45:21.979Z,983.29
2022-11-05T08:46:21.969Z,983.30
2022-11-05T08:47:21.958Z,983.32
2022-11-05T08:48:21.957Z,983.31
2022-11-05T08:49:21.972Z,983.31
2022-11-05T08:50:21.926Z,983.30
2022-11-05T08:51:21.917Z,983.29
2022-11-05T08:52:21.905Z,983.29
2022-11-05T08:53:21.913Z,983.29
2022-11-05T08:54:21.897Z,983.30
2022-11-05T08:55:21.878Z,983.32
2022-11-05T08:56:21.868Z,983.33
2022-11-05T08:57:21.852Z,983.34
2022-11-05T08:58:21.854Z,983.37
2022-11-05T08:59:21.923Z,983.39
2022-11-05T09:00:21.831Z,983.41
2022-11-05T09:01:21.915Z,983.43
2022-11-05T09:02:21.977Z,983.44
2022-11-05T09:03:21.790Z,983.44
2022-11-05T09:04:21.775Z,983.45
2022-11-05T09:05:21.781Z,983.44
2022-11-05T09:06:21.770Z,983.43
2022-11-05T09:07:21.746Z,983.42
2022-11-05T09:08:21.734Z,983.39
2022-11-05T09:09:22.718Z,983.37
2022-11-05T09:10:21.710Z,983.37
2022-11-05T09:11:21.711Z,983.36
2022-11-05T09:12:21.701Z,983.36
2022-11-05T09:13:22.109Z,983.37
2022-11-05T09:14:21.669Z,983.38
2022-11-05T09:15:21.671Z,983.37
2022-11-05T09:16:21.658Z,983.38
2022-11-05T09:17:21.646Z,983.39
2022-11-05T09:18:21.634Z,983.39
2022-11-05T09:19:21.621Z,983.40
2022-11-05T09:20:21.605Z,983.41
2022-11-05T09:21:21.598Z,983.42
2022-11-05T09:22:21.601Z,983.44
2022-11-05T09:23:21.579Z,983.45
2022-11-05T09:24:21.571Z,983.46
2022-11-05T09:25:21.551Z,983.46
2022-11-05T09:26:21.549Z,983.46
2022-11-05T09:27:21.547Z,983.45
2022-11-05T09:28:21.553Z,983.44
2022-11-05T09:29:21.514Z,983.44
2022-11-05T09:30:21.498Z,983.43
2022-11-05T09:31:21.492Z,983.43
2022-11-05T09:32:21.477Z,983.43
2022-11-05T09:33:21.480Z,983.44
2022-11-05T09:34:21.455Z,983.45
2022-11-05T09:35:21.480Z,983.46
2022-11-05T09:36:21.435Z,983.49
2022-11-05T09:37:21.423Z,983.51
2022-11-05T09:38:21.424Z,983.53
2022-11-05T09:39:21.429Z,983.54
2022-11-05T09:40:21.415Z,983.55
2022-11-05T09:41:21.396Z,983.55
2022-11-05T09:42:21.372Z,983.55
2022-11-05T09:43:21.365Z,983.55
2022-11-05T09:44:21.346Z,983.56
2022-11-05T09:45:21.362Z,983.56
2022-11-05T09:46:21.328Z,983.56
2022-11-05T09:47:21.316Z,983.57
2022-11-05T09:48:21.304Z,983.58
2022-11-05T09:49:21.314Z,983.59
2022-11-05T09:50:21.286Z,983.60
2022-11-05T09:51:24.049Z,983.61
2022-11-05T09:52:21.262Z,983.62
2022-11-05T09:53:21.258Z,983.63
2022-11-05T09:54:21.266Z,983.63
2022-11-05T09:55:21.234Z,983.63
2022-11-05T09:56:21.218Z,983.63
2022-11-05T09:57:21.212Z,983.63
2022-11-05T09:58:24.517Z,983.64
2022-11-05T09:59:21.196Z,983.66
2022-11-05T10:00:21.284Z,983.67
2022-11-05T10:01:21.288Z,983.68
2022-11-05T10:02:21.192Z,983.70
2022-11-05T10:03:21.146Z,983.72
2022-11-05T10:04:21.133Z,983.73
2022-11-05T10:05:21.147Z,983.74
2022-11-05T10:06:21.120Z,983.74
2022-11-05T10:07:21.105Z,983.74
2022-11-05T10:08:21.094Z,983.74
2022-11-05T10:09:21.089Z,983.75
2022-11-05T10:10:21.104Z,983.75
2022-11-05T10:11:21.075Z,983.75
2022-11-05T10:12:21.049Z,983.75
2022-11-05T10:13:21.046Z,983.75
2022-11-05T10:14:21.044Z,983.74
2022-11-05T10:15:21.019Z,983.74
2022-11-05T10:16:21.013Z,983.75
2022-11-05T10:17:21.005Z,983.75
2022-11-05T10:18:20.981Z,983.75
2022-11-05T10:19:20.989Z,983.75
2022-11-05T10:20:20.995Z,983.74
2022-11-05T10:21:37.720Z,983.75
2022-11-05T10:22:20.956Z,983.76
2022-11-05T10:23:20.945Z,983.78
2022-11-05T10:24:20.920Z,983.78
2022-11-05T10:25:20.913Z,983.80
2022-11-05T10:26:20.899Z,983.80
2022-11-05T10:27:20.912Z,983.82
2022-11-05T10:28:20.888Z,983.84
2022-11-05T10:29:20.870Z,983.86
2022-11-05T10:30:20.867Z,983.88
2022-11-05T10:31:20.868Z,983.90
2022-11-05T10:32:20.835Z,983.91
2022-11-05T10:33:20.834Z,983.92
2022-11-05T10:34:20.813Z,983.94
2022-11-05T10:35:20.807Z,983.95
2022-11-05T10:36:20.793Z,983.96
2022-11-05T10:37:20.785Z,983.95
2022-11-05T10:38:20.778Z,983.96
2022-11-05T10:39:20.768Z,983.96
2022-11-05T10:40:20.748Z,983.98
2022-11-05T10:41:20.747Z,983.99
2022-11-05T10:42:20.730Z,984.01
2022-11-05T10:43:20.810Z,984.01
2022-11-05T10:44:20.717Z,984.02
2022-11-05T10:45:20.737Z,984.02
2022-11-05T10:46:20.710Z,984.01
2022-11-05T10:47:20.708Z,984.01
2022-11-05T10:48:20.712Z,984.02
2022-11-05T10:49:20.736Z,984.02
2022-11-05T10:50:20.724Z,984.03
2022-11-05T10:51:20.711Z,984.03
2022-11-05T10:52:20.708Z,984.04
2022-11-05T10:53:20.725Z,984.03
2022-11-05T10:54:20.736Z,984.04
2022-11-05T10:55:20.720Z,984.03
2022-11-05T10:56:20.698Z,984.03
2022-11-05T10:57:20.711Z,984.04
2022-11-05T10:58:20.720Z,984.05
2022-11-05T10:59:20.709Z,984.05
2022-11-05T11:00:20.717Z,984.06
2022-11-05T11:01:20.714Z,984.06
2022-11-05T11:02:20.727Z,984.06
2022-11-05T11:03:20.507Z,984.06
2022-11-05T11:04:20.495Z,984.05
2022-11-05T11:05:20.485Z,984.05
2022-11-05T11:06:20.488Z,984.03
2022-11-05T11:07:20.474Z,984.03
2022-11-05T11:08:20.455Z,984.03
2022-11-05T11:09:20.449Z,984.03
2022-11-05T11:10:20.441Z,984.02
2022-11-05T11:11:20.425Z,984.02
2022-11-05T11:12:20.422Z,984.02
2022-11-05T11:13:20.403Z,984.01
2022-11-05T11:14:20.397Z,984.02
2022-11-05T11:15:20.381Z,984.02
2022-11-05T11:16:20.380Z,984.03
2022-11-05T11:17:20.362Z,984.05
2022-11-05T11:18:20.347Z,984.05
2022-11-05T11:19:20.340Z,984.04
2022-11-05T11:20:20.359Z,984.04
2022-11-05T11:21:20.325Z,984.04
2022-11-05T11:22:20.312Z,984.03
2022-11-05T11:23:20.297Z,984.02
2022-11-05T11:24:20.282Z,984.02
2022-11-05T11:25:20.274Z,984.03
2022-11-05T11:26:20.262Z,984.03
2022-11-05T11:27:20.273Z,984.03
2022-11-05T11:28:20.240Z,984.02
2022-11-05T11:29:20.236Z,984.02
2022-11-05T11:30:20.235Z,984.02
2022-11-05T11:31:20.222Z,984.03
2022-11-05T11:32:20.208Z,984.04
2022-11-05T11:33:20.205Z,984.05
2022-11-05T11:34:20.189Z,984.05
2022-11-05T11:35:20.172Z,984.03
2022-11-05T11:36:20.168Z,984.03
2022-11-05T11:37:20.159Z,984.03
2022-11-05T11:38:20.154Z,984.03
2022-11-05T11:39:20.135Z,984.04
2022-11-05T11:40:20.127Z,984.05
2022-11-05T11:41:20.108Z,984.06
2022-11-05T11:42:20.101Z,984.06
2022-11-05T11:43:20.099Z,984.06
2022-11-05T11:44:20.082Z,984.08
2022-11-05T11:45:20.069Z,984.09
2022-11-05T11:46:20.055Z,984.11
2022-11-05T11:47:20.064Z,984.11
2022-11-05T11:48:20.059Z,984.12
2022-11-05T11:49:20.025Z,984.13
2022-11-05T11:50:20.022Z,984.15
2022-11-05T11:51:20.006Z,984.15
2022-11-05T11:52:20.040Z,984.15
2022-11-05T11:53:19.985Z,984.16
2022-11-05T11:54:19.991Z,984.17
2022-11-05T11:55:20.257Z,984.17
2022-11-05T11:56:19.979Z,984.17
2022-11-05T11:57:19.962Z,984.18
2022-11-05T11:58:19.951Z,984.19
2022-11-05T11:59:19.923Z,984.19
2022-11-05T12:00:19.944Z,984.20
2022-11-05T12:01:19.930Z,984.21
2022-11-05T12:02:20.030Z,984.22
2022-11-05T12:03:20.375Z,984.22
2022-11-05T12:04:19.868Z,984.22
2022-11-05T12:05:19.861Z,984.21
2022-11-05T12:06:19.859Z,984.21
2022-11-05T12:07:19.860Z,984.21
2022-11-05T12:08:19.821Z,984.21
2022-11-05T12:09:19.816Z,984.20
2022-11-05T12:10:19.807Z,984.19
2022-11-05T12:11:19.801Z,984.19
2022-11-05T12:12:19.785Z,984.18
2022-11-05T12:13:19.770Z,984.17
2022-11-05T12:14:19.764Z,984.16
2022-11-05T12:15:19.749Z,984.15
2022-11-05T12:16:19.770Z,984.13
2022-11-05T12:17:19.738Z,984.11
2022-11-05T12:18:19.741Z,984.11
2022-11-05T12:19:19.729Z,984.10
2022-11-05T12:20:19.709Z,984.08
2022-11-05T12:21:40.726Z,984.09
2022-11-05T12:22:19.731Z,984.08
2022-11-05T12:23:19.666Z,984.10
2022-11-05T12:24:19.656Z,984.09
2022-11-05T12:25:19.645Z,984.10
2022-11-05T12:26:19.635Z,984.12
2022-11-05T12:27:19.668Z,984.12
2022-11-05T12:28:19.620Z,984.13